Time;durP1;ratioP1;P1;durP2;ratioP2;P2;SDS_P1;SDS_P2;PMS_P1;PMS_P2;Temp;Humidity;BMP_temperature;BMP_pressure;BME280_temperature;BME280_humidity;BME280_pressure;Samples;Min_cycle;Max_cycle;Signal;HPM_P1;HPM_P2
2023/07/01 00:00:14;;;;;;;3.85;1.90;;;17.30;99.90;;;;;;5005761;28;20045;-71
2023/07/01 00:02:39;;;;;;;2.10;1.90;;;17.30;99.90;;;;;;5017540;28;20089;-71
2023/07/01 00:05:07;;;;;;;6.15;2.20;;;17.30;99.90;;;;;;5013594;28;20101;-71
2023/07/01 00:07:32;;;;;;;5.30;2.75;;;17.20;99.90;;;;;;5023983;28;20046;-71
2023/07/01 00:09:58;;;;;;;3.85;2.30;;;17.20;99.90;;;;;;5024494;28;20037;-71
2023/07/01 00:12:23;;;;;;;3.47;2.80;;;17.30;99.90;;;;;;5023462;28;20113;-71
2023/07/01 00:14:49;;;;;;;4.70;1.90;;;17.30;99.90;;;;;;5024118;28;20060;-71
2023/07/01 00:17:16;;;;;;;4.30;2.63;;;17.30;99.90;;;;;;5023118;28;20508;-71
2023/07/01 00:19:43;;;;;;;2.53;1.73;;;17.30;99.90;;;;;;5022874;28;20488;-71
2023/07/01 00:22:08;;;;;;;2.72;2.22;;;17.20;99.90;;;;;;4986644;28;20054;-72
2023/07/01 00:24:34;;;;;;;2.30;1.40;;;17.20;99.90;;;;;;5004128;28;20467;-72
2023/07/01 00:27:00;;;;;;;4.30;1.70;;;17.20;99.90;;;;;;5014781;28;20067;-73
2023/07/01 00:29:25;;;;;;;2.25;1.52;;;17.20;99.90;;;;;;5006072;28;20129;-71
2023/07/01 00:31:51;;;;;;;3.72;1.98;;;17.20;99.90;;;;;;5015521;28;20037;-71
2023/07/01 00:34:17;;;;;;;1.60;1.35;;;17.20;99.90;;;;;;5003924;28;20081;-72
2023/07/01 00:36:42;;;;;;;1.88;1.50;;;17.20;99.90;;;;;;5004616;28;20065;-71
2023/07/01 00:39:08;;;;;;;3.38;1.52;;;17.20;99.90;;;;;;4994339;28;20138;-71
2023/07/01 00:41:34;;;;;;;2.65;2.08;;;17.20;99.90;;;;;;5023869;28;20466;-71
2023/07/01 00:43:59;;;;;;;3.05;1.58;;;17.20;99.90;;;;;;4995318;28;20045;-73
2023/07/01 00:46:25;;;;;;;4.40;1.92;;;17.20;99.90;;;;;;4986347;28;20042;-72
2023/07/01 00:48:51;;;;;;;5.68;1.38;;;17.20;99.90;;;;;;5004356;28;20046;-71
2023/07/01 00:51:16;;;;;;;2.78;1.95;;;17.10;99.90;;;;;;5003751;28;20103;-71
2023/07/01 00:53:42;;;;;;;3.30;2.13;;;17.10;99.90;;;;;;5004246;28;20058;-71
2023/07/01 00:56:08;;;;;;;3.83;2.17;;;17.10;99.90;;;;;;5003868;28;20042;-71
2023/07/01 00:58:34;;;;;;;4.90;1.92;;;17.00;99.90;;;;;;5012924;28;20037;-71
2023/07/01 01:01:06;;;;;;;4.72;2.17;;;17.00;99.90;;;;;;5004821;28;20094;-72
2023/07/01 01:03:49;;;;;;;2.63;2.15;;;16.90;99.90;;;;;;5023552;28;20048;-70
2023/07/01 01:06:20;;;;;;;4.45;2.30;;;16.90;99.90;;;;;;5016821;28;20065;-71
2023/07/01 01:09:01;;;;;;;3.40;2.15;;;16.90;99.90;;;;;;5024589;28;20144;-71
2023/07/01 01:11:31;;;;;;;2.35;1.63;;;16.90;99.90;;;;;;5007873;28;20123;-71
2023/07/01 01:14:01;;;;;;;4.65;2.30;;;16.90;99.90;;;;;;5077039;23;20061;-69
2023/07/01 01:16:28;;;;;;;3.65;2.17;;;16.80;99.90;;;;;;5005274;28;20042;-69
2023/07/01 01:18:54;;;;;;;1.77;1.60;;;16.80;99.90;;;;;;5006140;28;20077;-69
2023/07/01 01:21:21;;;;;;;3.00;2.00;;;16.70;99.90;;;;;;5007113;28;20092;-69
2023/07/01 01:23:58;;;;;;;3.97;2.20;;;16.70;99.90;;;;;;5007591;28;20042;-69
2023/07/01 01:26:28;;;;;;;6.22;2.10;;;16.80;99.90;;;;;;5006470;28;20049;-70
2023/07/01 01:28:55;;;;;;;2.40;1.75;;;16.70;99.90;;;;;;5005866;28;20046;-70
2023/07/01 01:31:21;;;;;;;3.67;2.42;;;16.70;99.90;;;;;;5006224;28;20065;-70
2023/07/01 01:33:48;;;;;;;4.20;1.90;;;16.70;99.90;;;;;;5007484;28;20046;-70
2023/07/01 01:36:44;;;;;;;4.28;2.22;;;16.70;99.90;;;;;;5005547;28;20034;-70
2023/07/01 01:39:13;;;;;;;3.45;2.35;;;16.70;99.90;;;;;;5007227;28;20046;-70
2023/07/01 01:41:45;;;;;;;4.45;2.45;;;16.70;99.90;;;;;;5005493;28;20069;-71
2023/07/01 01:44:18;;;;;;;6.35;2.97;;;16.70;99.90;;;;;;5006867;28;20038;-70
2023/07/01 01:46:44;;;;;;;4.85;2.30;;;16.70;99.90;;;;;;5006568;28;20042;-70
2023/07/01 01:49:11;;;;;;;4.97;2.63;;;16.70;99.90;;;;;;5007016;28;20127;-70
2023/07/01 01:51:40;;;;;;;7.43;2.70;;;16.70;99.90;;;;;;5005743;28;20060;-70
2023/07/01 01:54:09;;;;;;;4.88;2.60;;;16.60;99.90;;;;;;5005597;28;20050;-70
2023/07/01 01:56:36;;;;;;;2.97;2.45;;;16.60;99.90;;;;;;5006992;28;20038;-70
2023/07/01 01:59:02;;;;;;;4.53;2.28;;;16.60;99.90;;;;;;5006626;28;20049;-70
2023/07/01 02:01:27;;;;;;;3.47;2.50;;;16.60;99.90;;;;;;5004915;28;20046;-70
2023/07/01 02:03:53;;;;;;;3.28;2.15;;;16.60;99.90;;;;;;4990582;28;20049;-69
2023/07/01 02:06:18;;;;;;;3.85;2.22;;;16.60;99.90;;;;;;4987129;28;20723;-70
2023/07/01 02:08:44;;;;;;;3.53;2.67;;;16.60;99.90;;;;;;5005459;28;20045;-70
2023/07/01 02:11:10;;;;;;;5.22;2.58;;;16.60;99.90;;;;;;5006059;28;20108;-70
2023/07/01 02:13:35;;;;;;;2.30;2.08;;;16.60;99.90;;;;;;5006506;28;20515;-70
2023/07/01 02:16:01;;;;;;;6.18;2.45;;;16.60;99.90;;;;;;5005311;28;20077;-71
2023/07/01 02:18:27;;;;;;;4.32;2.65;;;16.60;99.90;;;;;;5005782;28;20415;-70
2023/07/01 02:20:52;;;;;;;3.22;2.58;;;16.60;99.90;;;;;;5006083;28;20082;-70
2023/07/01 02:23:18;;;;;;;4.38;2.50;;;16.50;99.90;;;;;;5006221;28;20125;-70
2023/07/01 02:25:43;;;;;;;3.83;2.55;;;16.60;99.90;;;;;;5006219;28;20476;-70
2023/07/01 02:28:09;;;;;;;3.58;2.42;;;16.60;99.90;;;;;;5006141;28;20050;-70
2023/07/01 02:30:35;;;;;;;3.33;2.15;;;16.60;99.90;;;;;;5005261;28;20030;-70
2023/07/01 02:33:01;;;;;;;4.15;2.60;;;16.60;99.90;;;;;;5004995;28;20046;-71
2023/07/01 02:35:27;;;;;;;6.32;3.25;;;16.60;99.90;;;;;;5006437;28;20042;-70
2023/07/01 02:37:52;;;;;;;4.47;2.80;;;16.60;99.90;;;;;;5006270;28;20121;-70
2023/07/01 02:40:18;;;;;;;5.88;3.30;;;16.60;99.90;;;;;;5005889;28;20038;-70
2023/07/01 02:42:44;;;;;;;4.57;2.17;;;16.60;99.90;;;;;;4988481;28;20389;-70
2023/07/01 02:45:10;;;;;;;3.85;2.05;;;16.60;99.90;;;;;;5005675;28;20034;-70
2023/07/01 02:47:35;;;;;;;2.95;2.28;;;16.60;99.90;;;;;;5005245;28;20045;-70
2023/07/01 02:50:02;;;;;;;3.47;2.40;;;16.60;99.90;;;;;;5004594;28;20095;-70
2023/07/01 02:52:28;;;;;;;3.40;2.13;;;16.60;99.90;;;;;;5005015;28;20460;-70
2023/07/01 02:54:53;;;;;;;3.65;2.47;;;16.60;99.90;;;;;;5005866;28;20120;-70
2023/07/01 02:57:19;;;;;;;3.42;2.50;;;16.50;99.90;;;;;;5004572;28;20655;-71
2023/07/01 02:59:47;;;;;;;5.82;2.67;;;16.60;99.90;;;;;;5004557;28;20049;-71
2023/07/01 03:02:13;;;;;;;3.95;2.72;;;16.50;99.90;;;;;;5004619;28;20085;-70
2023/07/01 03:04:39;;;;;;;5.43;2.70;;;16.50;99.90;;;;;;5005815;28;20092;-70
2023/07/01 03:07:04;;;;;;;4.03;2.70;;;16.50;99.90;;;;;;5005125;28;20060;-71
2023/07/01 03:09:30;;;;;;;4.97;2.78;;;16.50;99.90;;;;;;5004699;28;20045;-72
2023/07/01 03:11:56;;;;;;;6.05;2.70;;;16.50;99.90;;;;;;5006008;28;20276;-70
2023/07/01 03:14:21;;;;;;;5.28;2.60;;;16.50;99.90;;;;;;5004842;28;20408;-70
2023/07/01 03:16:49;;;;;;;4.60;2.72;;;16.50;99.90;;;;;;5004826;28;20404;-71
2023/07/01 03:19:15;;;;;;;3.92;2.75;;;16.50;99.90;;;;;;5005405;28;20570;-71
2023/07/01 03:21:41;;;;;;;2.88;2.60;;;16.50;99.90;;;;;;5005259;28;20042;-70
2023/07/01 03:24:07;;;;;;;4.50;3.35;;;16.50;99.90;;;;;;5004938;28;20543;-70
2023/07/01 03:26:32;;;;;;;3.90;2.58;;;16.50;99.90;;;;;;5003972;28;20044;-71
2023/07/01 03:28:58;;;;;;;4.18;2.95;;;16.50;99.90;;;;;;5003815;28;20125;-71
2023/07/01 03:31:24;;;;;;;5.35;3.33;;;16.50;99.90;;;;;;5004293;28;20089;-70
2023/07/01 03:33:50;;;;;;;6.63;2.67;;;16.50;99.90;;;;;;5004165;28;20065;-70
2023/07/01 03:36:16;;;;;;;6.55;2.97;;;16.50;99.90;;;;;;5004885;28;20041;-70
2023/07/01 03:38:41;;;;;;;7.53;3.85;;;16.50;99.90;;;;;;5004465;28;20535;-71
2023/07/01 03:41:07;;;;;;;4.95;2.88;;;16.40;99.90;;;;;;5003712;28;20038;-71
2023/07/01 03:43:34;;;;;;;4.57;3.15;;;16.50;99.90;;;;;;5003647;28;20038;-71
2023/07/01 03:45:59;;;;;;;5.88;3.10;;;16.40;99.90;;;;;;5004195;28;20492;-72
2023/07/01 03:48:25;;;;;;;5.43;3.40;;;16.40;99.90;;;;;;5005700;28;20099;-70
2023/07/01 03:50:51;;;;;;;7.10;3.30;;;16.40;99.90;;;;;;5003491;28;20137;-71
2023/07/01 03:53:16;;;;;;;6.25;3.45;;;16.40;99.90;;;;;;5003165;28;20060;-70
2023/07/01 03:55:42;;;;;;;7.13;4.03;;;16.50;99.90;;;;;;5004702;28;20070;-71
2023/07/01 03:58:08;;;;;;;6.72;3.05;;;16.40;99.90;;;;;;5003421;28;20046;-71
2023/07/01 04:00:34;;;;;;;5.97;3.15;;;16.40;99.90;;;;;;5002634;28;20109;-71
2023/07/01 04:03:05;;;;;;;5.25;3.13;;;16.40;99.90;;;;;;5002923;28;20050;-73
2023/07/01 04:05:34;;;;;;;4.55;3.10;;;16.50;99.90;;;;;;4999871;28;20116;-71
2023/07/01 04:08:00;;;;;;;6.28;3.83;;;16.40;99.90;;;;;;5003392;28;20548;-72
2023/07/01 04:10:26;;;;;;;5.75;3.22;;;16.40;99.90;;;;;;5005023;28;20041;-70
2023/07/01 04:12:52;;;;;;;5.75;3.60;;;16.50;99.90;;;;;;5003344;28;20119;-70
2023/07/01 04:15:18;;;;;;;6.57;3.90;;;16.50;99.90;;;;;;5003411;28;20054;-69
2023/07/01 04:17:48;;;;;;;6.65;3.47;;;16.50;99.90;;;;;;5004613;28;20069;-71
2023/07/01 04:20:15;;;;;;;6.05;3.10;;;16.40;99.90;;;;;;5003002;28;20046;-70
2023/07/01 04:22:41;;;;;;;5.43;3.22;;;16.50;99.90;;;;;;5004469;28;20053;-70
2023/07/01 04:25:07;;;;;;;6.28;3.60;;;16.40;99.90;;;;;;5002342;28;20128;-71
2023/07/01 04:27:34;;;;;;;5.68;3.17;;;16.40;99.90;;;;;;5002942;28;20072;-71
2023/07/01 04:30:00;;;;;;;5.18;2.75;;;16.50;99.90;;;;;;5001753;28;20085;-72
2023/07/01 04:32:25;;;;;;;3.78;2.45;;;16.40;99.90;;;;;;5004872;28;20073;-70
2023/07/01 04:34:52;;;;;;;7.47;3.10;;;16.40;99.90;;;;;;4986551;28;20069;-70
2023/07/01 04:37:17;;;;;;;5.43;2.50;;;16.40;99.90;;;;;;5003788;28;20034;-71
2023/07/01 04:39:43;;;;;;;6.65;2.75;;;16.50;99.90;;;;;;5003851;28;20125;-70
2023/07/01 04:42:08;;;;;;;3.95;2.55;;;16.50;99.90;;;;;;5006243;28;20480;-70
2023/07/01 04:44:34;;;;;;;4.80;2.75;;;16.50;99.90;;;;;;5008618;28;20038;-70
2023/07/01 04:47:00;;;;;;;7.32;2.95;;;16.50;99.90;;;;;;5006920;28;20050;-72
2023/07/01 04:49:25;;;;;;;4.80;3.00;;;16.50;99.90;;;;;;5008892;28;20073;-70
2023/07/01 04:51:51;;;;;;;4.55;2.72;;;16.50;99.90;;;;;;5008210;28;20038;-70
2023/07/01 04:54:17;;;;;;;5.38;2.90;;;16.50;99.90;;;;;;5006329;28;20120;-71
2023/07/01 04:56:43;;;;;;;4.18;2.30;;;16.50;99.90;;;;;;5008365;28;20140;-70
2023/07/01 04:59:08;;;;;;;3.97;2.33;;;16.50;99.90;;;;;;5008009;28;20518;-70
2023/07/01 05:01:34;;;;;;;3.25;2.10;;;16.50;99.90;;;;;;5005982;28;20069;-70
2023/07/01 05:03:59;;;;;;;4.15;2.38;;;16.50;99.90;;;;;;5006383;28;20046;-72
2023/07/01 05:06:25;;;;;;;3.50;2.28;;;16.50;99.90;;;;;;5008471;28;20034;-69
2023/07/01 05:08:51;;;;;;;5.20;2.63;;;16.50;99.90;;;;;;5007809;28;20042;-70
2023/07/01 05:11:17;;;;;;;3.35;2.13;;;16.50;99.90;;;;;;5006892;28;20041;-70
2023/07/01 05:13:44;;;;;;;6.30;2.50;;;16.60;99.90;;;;;;5007565;28;20068;-70
2023/07/01 05:16:10;;;;;;;3.90;2.53;;;16.50;99.90;;;;;;5005532;28;20042;-70
2023/07/01 05:18:36;;;;;;;3.35;2.20;;;16.60;99.90;;;;;;5006489;28;20576;-70
2023/07/01 05:21:01;;;;;;;5.88;2.50;;;16.60;99.90;;;;;;5006110;28;20049;-70
2023/07/01 05:23:27;;;;;;;3.88;2.80;;;16.60;99.90;;;;;;5006645;28;20042;-70
2023/07/01 05:25:53;;;;;;;2.72;1.92;;;16.60;99.90;;;;;;5006061;28;20496;-70
2023/07/01 05:28:18;;;;;;;3.25;2.25;;;16.60;99.90;;;;;;5004775;28;20045;-70
2023/07/01 05:30:45;;;;;;;5.00;2.72;;;16.60;99.90;;;;;;4998604;28;20066;-71
2023/07/01 05:33:11;;;;;;;3.08;2.17;;;16.60;99.90;;;;;;4988792;28;20125;-71
2023/07/01 05:35:36;;;;;;;3.00;2.28;;;16.60;99.90;;;;;;4988170;28;20125;-72
2023/07/01 05:38:13;;;;;;;2.90;2.13;;;16.60;99.90;;;;;;5005945;28;20037;-70
2023/07/01 05:40:39;;;;;;;4.75;2.35;;;16.60;99.90;;;;;;5004889;28;20049;-70
2023/07/01 05:43:05;;;;;;;2.92;1.80;;;16.60;99.90;;;;;;5005615;28;20060;-73
2023/07/01 05:45:30;;;;;;;3.08;1.90;;;16.60;99.90;;;;;;5003982;28;20046;-72
2023/07/01 05:47:56;;;;;;;4.28;2.08;;;16.60;99.90;;;;;;5006486;28;20076;-71
2023/07/01 05:50:22;;;;;;;3.10;1.92;;;16.60;99.90;;;;;;5005461;28;20042;-72
2023/07/01 05:52:48;;;;;;;2.25;1.42;;;16.60;99.90;;;;;;5005584;28;20439;-71
2023/07/01 05:55:13;;;;;;;1.88;1.58;;;16.60;99.90;;;;;;5004285;28;20081;-71
2023/07/01 05:57:39;;;;;;;3.05;1.60;;;16.60;99.90;;;;;;4988043;28;20069;-71
2023/07/01 06:00:06;;;;;;;2.80;1.67;;;16.70;99.90;;;;;;5004914;28;20439;-71
2023/07/01 06:02:32;;;;;;;2.10;1.23;;;16.70;99.90;;;;;;5004332;28;20041;-71
2023/07/01 06:04:58;;;;;;;2.15;1.20;;;16.70;99.90;;;;;;5006124;28;20088;-71
2023/07/01 06:07:24;;;;;;;3.75;1.50;;;16.70;99.90;;;;;;5004280;28;20512;-71
2023/07/01 06:09:49;;;;;;;3.20;1.27;;;16.70;99.90;;;;;;5005769;28;20056;-71
2023/07/01 06:12:16;;;;;;;1.85;1.40;;;16.70;99.90;;;;;;5004989;28;20048;-71
2023/07/01 06:14:42;;;;;;;2.10;1.40;;;16.70;99.90;;;;;;4967015;28;1101805;-72
2023/07/01 06:17:08;;;;;;;1.85;1.40;;;16.70;99.90;;;;;;5006304;28;20504;-71
2023/07/01 06:19:34;;;;;;;3.08;1.30;;;16.70;99.90;;;;;;5006655;28;20129;-71
2023/07/01 06:21:59;;;;;;;1.60;1.20;;;16.70;99.90;;;;;;5004974;28;20045;-73
2023/07/01 06:24:25;;;;;;;2.00;1.15;;;16.80;99.90;;;;;;5007088;28;20484;-72
2023/07/01 06:26:51;;;;;;;2.55;1.35;;;16.80;99.90;;;;;;5006481;28;20045;-72
2023/07/01 06:29:16;;;;;;;2.20;1.23;;;16.80;99.90;;;;;;5006157;28;20085;-71
2023/07/01 06:31:42;;;;;;;1.40;1.05;;;16.80;99.90;;;;;;5004536;28;20093;-71
2023/07/01 06:34:17;;;;;;;1.88;1.00;;;16.80;99.90;;;;;;5006186;28;20080;-71
2023/07/01 06:36:44;;;;;;;2.03;1.20;;;16.80;99.90;;;;;;5006537;28;20038;-71
2023/07/01 06:39:10;;;;;;;1.77;1.10;;;16.80;99.90;;;;;;5005812;28;20480;-71
2023/07/01 06:41:35;;;;;;;1.20;0.93;;;16.90;99.90;;;;;;5005202;28;20053;-71
2023/07/01 06:44:02;;;;;;;2.78;1.10;;;16.90;99.90;;;;;;5005512;28;20038;-71
2023/07/01 06:46:28;;;;;;;3.90;0.90;;;16.90;99.90;;;;;;5004479;28;20104;-71
2023/07/01 06:48:54;;;;;;;1.80;1.20;;;16.90;99.90;;;;;;5004674;28;20484;-71
2023/07/01 06:51:20;;;;;;;1.52;1.10;;;16.90;99.90;;;;;;5004410;28;20057;-71
2023/07/01 06:53:46;;;;;;;1.10;0.70;;;16.90;99.90;;;;;;5006077;28;20038;-71
2023/07/01 06:56:11;;;;;;;4.18;1.27;;;16.90;99.90;;;;;;5005823;28;20045;-71
2023/07/01 06:58:37;;;;;;;1.52;0.80;;;17.00;99.90;;;;;;5005583;28;20488;-71
2023/07/01 07:01:03;;;;;;;1.27;0.85;;;17.00;99.90;;;;;;5003032;28;20049;-71
2023/07/01 07:03:29;;;;;;;1.10;0.93;;;17.00;99.90;;;;;;4985872;28;20042;-71
2023/07/01 07:05:55;;;;;;;1.00;0.82;;;17.00;99.90;;;;;;5004005;28;20033;-70
2023/07/01 07:08:21;;;;;;;1.17;0.73;;;17.00;99.90;;;;;;5005232;28;20042;-71
2023/07/01 07:10:47;;;;;;;1.15;0.45;;;17.10;99.90;;;;;;5005610;28;20050;-71
2023/07/01 07:13:12;;;;;;;0.75;0.60;;;17.10;99.90;;;;;;5005145;28;20060;-71
2023/07/01 07:15:40;;;;;;;1.10;1.00;;;17.10;99.90;;;;;;5004452;28;20137;-71
2023/07/01 07:18:09;;;;;;;1.02;0.50;;;17.10;99.90;;;;;;5005055;28;20046;-71
2023/07/01 07:20:39;;;;;;;3.60;0.77;;;17.10;99.90;;;;;;5003589;28;20128;-72
2023/07/01 07:23:08;;;;;;;0.80;0.63;;;17.10;99.90;;;;;;5002706;28;20594;-71
2023/07/01 07:25:33;;;;;;;0.70;0.55;;;17.20;99.90;;;;;;5004320;28;20050;-70
2023/07/01 07:28:01;;;;;;;1.02;0.52;;;17.20;99.90;;;;;;5004357;28;20054;-71
2023/07/01 07:30:26;;;;;;;1.38;0.50;;;17.20;99.90;;;;;;5003236;28;20045;-71
2023/07/01 07:32:52;;;;;;;2.25;0.50;;;17.20;99.90;;;;;;5003788;28;20061;-71
2023/07/01 07:35:18;;;;;;;0.60;0.60;;;17.20;99.90;;;;;;5003986;28;20373;-70
2023/07/01 07:37:44;;;;;;;0.98;0.70;;;17.30;99.90;;;;;;4986993;28;20053;-71
2023/07/01 07:40:10;;;;;;;2.53;1.25;;;17.30;99.90;;;;;;4991679;28;20405;-72
2023/07/01 07:42:37;;;;;;;0.88;0.55;;;17.30;99.90;;;;;;4995563;28;20062;-71
2023/07/01 07:45:06;;;;;;;0.77;0.63;;;17.30;99.90;;;;;;4996187;28;21011;-70
2023/07/01 07:47:32;;;;;;;1.33;0.73;;;17.30;99.90;;;;;;4997178;28;20041;-72
2023/07/01 07:49:57;;;;;;;2.47;0.68;;;17.40;99.90;;;;;;4998032;28;20093;-71
2023/07/01 07:52:23;;;;;;;0.55;0.43;;;17.40;99.90;;;;;;4998626;28;20046;-71
2023/07/01 07:54:49;;;;;;;1.92;0.47;;;17.40;99.90;;;;;;4997062;28;20046;-72
2023/07/01 07:57:14;;;;;;;0.57;0.47;;;17.40;99.90;;;;;;4998795;28;20464;-71
2023/07/01 07:59:41;;;;;;;0.68;0.63;;;17.40;99.90;;;;;;5002621;28;20172;-72
2023/07/01 08:02:08;;;;;;;1.45;0.80;;;17.40;99.90;;;;;;5003289;28;20452;-71
2023/07/01 08:04:34;;;;;;;0.47;0.45;;;17.40;99.90;;;;;;4985398;28;20050;-71
2023/07/01 08:07:00;;;;;;;2.10;0.70;;;17.40;99.90;;;;;;4985281;28;20496;-73
2023/07/01 08:09:26;;;;;;;1.42;0.68;;;17.40;99.90;;;;;;4985393;28;20051;-72
2023/07/01 08:11:51;;;;;;;2.03;1.13;;;17.40;99.90;;;;;;4985290;28;20635;-72
2023/07/01 08:14:20;;;;;;;1.58;0.90;;;17.40;99.90;;;;;;4984217;28;20104;-71
2023/07/01 08:16:46;;;;;;;2.88;1.13;;;17.40;99.90;;;;;;5003824;28;20042;-72
2023/07/01 08:19:11;;;;;;;3.40;1.40;;;17.40;99.90;;;;;;5000063;28;20187;-72
2023/07/01 08:21:37;;;;;;;4.47;1.75;;;17.40;99.90;;;;;;4999786;28;20042;-73
2023/07/01 08:24:13;;;;;;;3.00;1.52;;;17.40;99.90;;;;;;4992548;28;20450;-71
2023/07/01 08:26:39;;;;;;;5.13;1.75;;;17.40;99.90;;;;;;4986588;28;20038;-73
2023/07/01 08:29:09;;;;;;;2.85;1.58;;;17.50;99.90;;;;;;5003998;28;20382;-72
2023/07/01 08:31:35;;;;;;;4.40;2.03;;;17.50;99.90;;;;;;4994816;28;20048;-73
2023/07/01 08:34:02;;;;;;;3.15;2.15;;;17.50;99.90;;;;;;4998537;28;20086;-72
2023/07/01 08:36:28;;;;;;;2.65;1.70;;;17.50;99.90;;;;;;4999413;28;20038;-72
2023/07/01 08:38:54;;;;;;;6.55;2.00;;;17.50;99.90;;;;;;4992336;28;20562;-72
2023/07/01 08:41:23;;;;;;;4.93;2.58;;;17.50;99.90;;;;;;5002954;28;20038;-71
2023/07/01 08:43:52;;;;;;;6.20;2.00;;;17.50;99.90;;;;;;4985205;28;20088;-70
2023/07/01 08:46:19;;;;;;;3.17;1.92;;;17.50;99.90;;;;;;4999136;28;20035;-72
2023/07/01 08:48:46;;;;;;;6.28;2.30;;;17.50;99.90;;;;;;4990678;28;20046;-71
2023/07/01 08:51:29;;;;;;;6.00;3.05;;;17.60;99.90;;;;;;4997473;28;20125;-71
2023/07/01 08:53:56;;;;;;;4.97;2.50;;;17.60;99.90;;;;;;5002945;28;20050;-70
2023/07/01 08:56:22;;;;;;;2.72;1.90;;;17.60;99.90;;;;;;4984835;28;20049;-72
2023/07/01 08:58:48;;;;;;;4.18;2.45;;;17.60;99.90;;;;;;4998867;28;20432;-72
2023/07/01 09:01:15;;;;;;;8.45;3.35;;;17.60;99.90;;;;;;4989869;28;20042;-71
2023/07/01 09:03:41;;;;;;;7.10;3.92;;;17.70;99.90;;;;;;4984839;28;20124;-72
2023/07/01 09:06:07;;;;;;;8.27;3.33;;;17.70;99.90;;;;;;5000218;28;20129;-70
2023/07/01 09:08:38;;;;;;;11.60;4.05;;;17.70;99.90;;;;;;4984429;28;20511;-73
2023/07/01 09:11:04;;;;;;;7.97;4.05;;;17.70;99.90;;;;;;5001968;28;20053;-71
2023/07/01 09:13:30;;;;;;;8.43;3.95;;;17.80;99.90;;;;;;5004273;28;20038;-72
2023/07/01 09:15:56;;;;;;;9.07;4.47;;;17.70;99.90;;;;;;5003162;28;20464;-71
2023/07/01 09:18:24;;;;;;;10.23;4.20;;;17.70;99.90;;;;;;5002609;28;20038;-73
2023/07/01 09:20:51;;;;;;;8.50;4.55;;;17.70;99.90;;;;;;4999782;28;20034;-71
2023/07/01 09:23:35;;;;;;;10.82;4.88;;;17.70;99.90;;;;;;5001000;28;20064;-72
2023/07/01 09:26:14;;;;;;;11.07;4.35;;;17.80;99.90;;;;;;4990425;28;20042;-72
2023/07/01 09:28:45;;;;;;;10.75;4.20;;;17.80;99.90;;;;;;5006432;28;20045;-72
2023/07/01 09:31:14;;;;;;;7.97;3.95;;;17.80;99.90;;;;;;4994794;28;20066;-72
2023/07/01 09:33:40;;;;;;;7.68;4.25;;;17.90;99.90;;;;;;5005332;28;20073;-72
2023/07/01 09:36:07;;;;;;;6.82;4.65;;;17.80;99.90;;;;;;5006062;28;20076;-71
2023/07/01 09:38:52;;;;;;;7.75;3.70;;;17.80;99.90;;;;;;5007607;28;20547;-71
2023/07/01 09:41:28;;;;;;;7.18;3.08;;;17.80;99.90;;;;;;5005918;28;20049;-71
2023/07/01 09:43:55;;;;;;;7.38;3.85;;;17.80;99.90;;;;;;5007612;28;20124;-72
2023/07/01 09:46:22;;;;;;;7.97;3.75;;;17.80;99.90;;;;;;5002091;28;20042;-72
2023/07/01 09:48:55;;;;;;;10.98;3.58;;;17.80;99.90;;;;;;5003684;28;20069;-72
2023/07/01 09:51:22;;;;;;;8.88;4.30;;;17.90;99.90;;;;;;5002787;28;20045;-73
2023/07/01 09:53:48;;;;;;;8.25;3.83;;;17.80;99.90;;;;;;4984117;28;20034;-72
2023/07/01 09:56:17;;;;;;;11.27;4.63;;;17.90;99.90;;;;;;4995013;28;20508;-72
2023/07/01 09:58:44;;;;;;;7.97;4.25;;;17.90;99.90;;;;;;5005115;28;20056;-74
2023/07/01 10:01:12;;;;;;;7.47;3.90;;;17.90;99.90;;;;;;5003866;28;20080;-73
2023/07/01 10:03:38;;;;;;;6.75;4.00;;;18.00;99.90;;;;;;4987760;28;20039;-72
2023/07/01 10:06:05;;;;;;;6.55;4.05;;;17.90;99.90;;;;;;5005942;28;20445;-72
2023/07/01 10:08:30;;;;;;;10.75;4.40;;;18.00;99.90;;;;;;4995272;28;20085;-73
2023/07/01 10:11:11;;;;;;;9.40;3.60;;;18.00;99.90;;;;;;4977240;28;20050;-73
2023/07/01 10:13:54;;;;;;;7.05;3.72;;;18.00;99.90;;;;;;4999328;28;20050;-73
2023/07/01 10:16:20;;;;;;;5.93;3.50;;;18.00;99.90;;;;;;5010787;28;20062;-73
2023/07/01 10:18:46;;;;;;;8.05;4.13;;;18.10;99.90;;;;;;4996542;28;20069;-72
2023/07/01 10:21:24;;;;;;;6.63;3.40;;;18.00;99.90;;;;;;4994399;28;20069;-72
2023/07/01 10:23:54;;;;;;;6.88;3.92;;;18.10;99.90;;;;;;4994748;28;20052;-72
2023/07/01 10:26:34;;;;;;;8.13;3.38;;;18.20;99.90;;;;;;4993381;28;20524;-72
2023/07/01 10:29:18;;;;;;;8.05;4.03;;;18.20;99.90;;;;;;4998020;28;20049;-73
2023/07/01 10:32:11;;;;;;;8.77;3.90;;;18.20;99.90;;;;;;4989261;28;20071;-72
2023/07/01 10:34:55;;;;;;;8.15;3.50;;;18.30;99.90;;;;;;4992540;28;20515;-71
2023/07/01 10:37:25;;;;;;;6.80;3.78;;;18.30;99.90;;;;;;5004638;28;20488;-72
2023/07/01 10:39:55;;;;;;;4.72;3.10;;;18.30;99.90;;;;;;4992716;28;20511;-72
2023/07/01 10:42:34;;;;;;;5.60;3.20;;;18.30;99.90;;;;;;5003969;28;20044;-73
2023/07/01 10:45:12;;;;;;;6.88;3.97;;;18.20;99.90;;;;;;5003970;28;20112;-73
2023/07/01 10:47:45;;;;;;;6.43;3.55;;;18.20;99.90;;;;;;5000449;28;20049;-74
2023/07/01 10:50:15;;;;;;;7.00;3.33;;;18.20;99.90;;;;;;5004557;28;20050;-73
2023/07/01 10:52:55;;;;;;;7.00;3.45;;;18.20;99.90;;;;;;5004419;28;20037;-73
2023/07/01 10:55:40;;;;;;;12.05;4.10;;;18.30;99.90;;;;;;4987921;28;20037;-73
2023/07/01 10:58:16;;;;;;;8.00;4.05;;;18.40;99.90;;;;;;4991751;28;20046;-73
2023/07/01 11:00:42;;;;;;;8.50;3.55;;;18.40;99.90;;;;;;5003002;28;20046;-74
2023/07/01 11:03:33;;;;;;;5.65;3.92;;;18.50;99.90;;;;;;4987249;28;20081;-72
2023/07/01 11:06:00;;;;;;;5.88;3.65;;;18.60;99.90;;;;;;5004007;28;20057;-71
2023/07/01 11:08:26;;;;;;;5.45;3.22;;;18.60;99.90;;;;;;5000638;28;20041;-73
2023/07/01 11:10:52;;;;;;;6.68;3.05;;;18.60;99.90;;;;;;4997817;28;20049;-74
2023/07/01 11:13:18;;;;;;;5.38;3.85;;;18.60;99.90;;;;;;4995892;28;20626;-74
2023/07/01 11:16:07;;;;;;;7.25;3.67;;;18.60;99.90;;;;;;5002862;28;20108;-74
2023/07/01 11:18:44;;;;;;;6.97;3.47;;;18.70;99.90;;;;;;4983991;28;20050;-74
2023/07/01 11:21:13;;;;;;;3.65;3.25;;;18.70;99.90;;;;;;4996340;28;20128;-74
2023/07/01 11:23:50;;;;;;;6.95;4.18;;;18.70;99.90;;;;;;4996386;28;20046;-72
2023/07/01 11:26:24;;;;;;;3.83;2.20;;;18.70;99.90;;;;;;4996038;28;20045;-72
2023/07/01 11:28:50;;;;;;;3.97;2.33;;;18.80;99.90;;;;;;4994755;28;20492;-75
2023/07/01 11:31:29;;;;;;;4.38;1.95;;;18.70;99.90;;;;;;4985196;28;20037;-72
2023/07/01 11:33:56;;;;;;;2.60;2.17;;;18.70;99.90;;;;;;5003081;28;20085;-74
2023/07/01 11:36:36;;;;;;;4.55;1.80;;;18.80;99.90;;;;;;4998271;28;20590;-72
2023/07/01 11:39:09;;;;;;;4.72;2.30;;;18.80;99.90;;;;;;4998998;28;20057;-72
2023/07/01 11:41:36;;;;;;;4.28;2.80;;;18.90;99.90;;;;;;4999586;28;20038;-72
2023/07/01 11:44:05;;;;;;;3.10;2.28;;;18.80;99.90;;;;;;4983117;28;20077;-71
2023/07/01 11:46:35;;;;;;;4.97;2.00;;;18.80;99.90;;;;;;4982457;28;20656;-72
2023/07/01 11:49:24;;;;;;;4.10;2.50;;;18.70;99.90;;;;;;4993594;28;20053;-73
2023/07/01 11:51:55;;;;;;;3.90;2.33;;;18.80;99.90;;;;;;4993863;28;20064;-75
2023/07/01 11:54:23;;;;;;;3.67;2.28;;;18.80;99.90;;;;;;4991440;28;20256;-74
2023/07/01 11:56:52;;;;;;;4.95;2.25;;;18.90;99.90;;;;;;4991139;28;20057;-74
2023/07/01 11:59:32;;;;;;;3.65;2.60;;;18.90;99.90;;;;;;4992272;28;20045;-75
2023/07/01 12:01:59;;;;;;;5.22;2.00;;;19.00;99.90;;;;;;4988847;28;20061;-75
2023/07/01 12:04:25;;;;;;;3.55;1.85;;;18.90;99.90;;;;;;4986625;28;20069;-74
2023/07/01 12:07:11;;;;;;;2.70;2.05;;;18.90;99.90;;;;;;4991159;28;20080;-71
2023/07/01 12:09:40;;;;;;;2.53;2.17;;;19.00;99.90;;;;;;5004256;28;20039;-72
2023/07/01 12:12:07;;;;;;;3.47;2.17;;;19.00;99.90;;;;;;5001677;28;20041;-72
2023/07/01 12:14:33;;;;;;;3.10;2.78;;;19.00;99.90;;;;;;5000964;28;20088;-73
2023/07/01 12:17:00;;;;;;;4.57;2.45;;;19.00;99.90;;;;;;4999419;28;20054;-73
2023/07/01 12:19:26;;;;;;;4.65;1.77;;;19.10;99.90;;;;;;5004407;28;20120;-74
2023/07/01 12:21:54;;;;;;;2.00;1.50;;;19.10;99.90;;;;;;4995828;28;20604;-73
2023/07/01 12:24:23;;;;;;;2.20;1.20;;;19.10;99.90;;;;;;5002549;28;20048;-76
2023/07/01 12:26:56;;;;;;;1.70;1.20;;;19.10;99.90;;;;;;5002569;28;20057;-73
2023/07/01 12:29:24;;;;;;;2.63;0.98;;;19.10;99.90;;;;;;4999394;28;20436;-73
2023/07/01 12:31:50;;;;;;;4.43;2.45;;;19.00;99.90;;;;;;5001878;28;20037;-73
2023/07/01 12:34:16;;;;;;;1.30;0.93;;;19.00;99.90;;;;;;4991954;28;20061;-73
2023/07/01 12:36:45;;;;;;;4.88;1.40;;;19.00;99.90;;;;;;5001761;28;20046;-73
2023/07/01 12:39:11;;;;;;;1.70;1.10;;;18.90;99.90;;;;;;5002589;28;20404;-73
2023/07/01 12:41:37;;;;;;;1.67;1.27;;;18.90;99.90;;;;;;5001538;28;20054;-71
2023/07/01 12:44:07;;;;;;;2.40;1.42;;;18.80;99.90;;;;;;5001591;28;20042;-71
2023/07/01 12:46:33;;;;;;;1.60;1.13;;;18.80;99.90;;;;;;4982433;28;20065;-71
2023/07/01 12:49:00;;;;;;;2.97;1.30;;;18.80;99.90;;;;;;4988004;28;20042;-71